North Dighton, MA

41° 51' 30"N, 71° 08' 44"W, Elevation 95 ft.
Eastern Time

Hourly observations for the last 72 hours

Date Time Temperature (°F) Humi-
dity

(%)
Wind
(mph)
Pressure Rain (in) Sun
(W/m2)
UV ET
(in)
Air Dew 6 Hour 1 Hr 3 Hr 6 Hr Day
Alt
(in)
Sea
Level

(mb)
Max Min
20 05:00 40.3 36.2 85 WSW 4 G 9 29.95 1014.2 0.00 0 0.0 0.000
20 04:00 37.4 35.6 93 S 4 G 9 29.93 1013.5 0.00 0 0.0 0.000
20 03:00 31.5 30.0 94 SSW 5 G 9 29.91 1012.9 0.00 0 0.0 0.000
20 02:00 30.3 28.0 91 S 3 G 5 29.91 1013.0 0.00 0 0.0 0.000
20 01:00 31.4 28.0 42.2 31.4 87 SSW 1 G 4 29.93 1013.5 0.00 0 0.0 0.000
20 00:00 38.4 33.4 82 SW 3 G 8 29.93 1013.5 0.00 0 0.0 0.048
19 23:00 39.3 34.0 81 SW 2 G 6 29.94 1013.8 0.00 0 0.0 0.048
19 22:00 40.2 34.5 80 SSW 6 G 11 29.94 1014.1 0.00 0 0.0 0.048
19 21:00 41.0 35.0 79 SSW 4 G 13 29.94 1013.9 0.00 0 0.0 0.048
19 20:00 41.9 35.2 77 WSW 5 G 14 29.93 1013.7 0.00 0 0.0 0.048
19 19:00 42.1 35.4 46.3 42.1 77 SSW 5 G 16 29.93 1013.5 0.00 0 0.0 0.047
19 18:00 42.8 35.1 74 SW 8 G 20 29.92 1013.3 0.00 0 0.0 0.046
19 17:00 43.7 35.3 72 SSW 10 G 20 29.91 1013.0 0.00 0 0.0 0.045
19 16:00 45.1 36.3 71 SSW 11 G 24 29.92 1013.4 0.00 28 0.0 0.041
19 15:00 46.0 36.8 70 SSW 14 G 28 29.91 1013.0 0.00 113 0.0 0.035
19 14:00 45.1 35.2 68 SSW 13 G 37 29.93 1013.7 0.00 258 0.7 0.026
19 13:00 45.0 34.3 45.0 20.9 66 SSW 9 G 20 29.97 1015.0 0.00 438 1.1 0.017
19 12:00 43.5 33.3 67 S 14 G 27 30.01 1016.5 0.00 262 1.3 0.010
19 11:00 40.5 30.8 68 SSW 11 G 24 30.07 1018.4 0.00 183 0.7 0.005
19 10:00 38.7 30.5 72 SSW 8 G 20 30.10 1019.5 0.00 265 0.6 0.001
19 09:00 27.3 18.1 68 S 1 G 3 30.14 1020.6 0.00 81 0.0 0.000
19 08:00 23.5 15.8 72 S 1 G 3 30.15 1021.0 0.00 100 0.0 0.000
19 07:00 20.9 12.7 20.9 15.4 70 S 1 G 4 30.15 1021.0 0.00 0 0.0 0.000
19 06:00 19.7 12.5 73 S 2 G 4 30.16 1021.3 0.00 0 0.0 0.000
19 05:00 18.0 12.3 78 SW 1 G 2 30.17 1021.8 0.00 0 0.0 0.000
19 04:00 17.0 11.6 79 SSW 0 G 2 30.17 1021.8 0.00 0 0.0 0.000
19 03:00 16.0 10.6 79 W 0 G 2 30.18 1021.9 0.00 0 0.0 0.000
19 02:00 16.4 10.2 76 W 0 G 2 30.17 1021.8 0.00 0 0.0 0.000
19 01:00 19.1 8.9 25.5 19.1 64 W 2 G 3 30.17 1021.7 0.00 0 0.0 0.000
19 00:00 20.1 8.4 60 WNW 3 G 5 30.15 1021.1 0.00 0 0.0 0.069
18 23:00 21.0 8.9 59 W 2 G 4 30.13 1020.3 0.00 0 0.0 0.069
18 22:00 22.2 9.3 57 WNW 4 G 10 30.09 1019.2 0.00 0 0.0 0.069
18 21:00 23.1 9.7 56 WNW 4 G 9 30.06 1018.0 0.00 0 0.0 0.068
18 20:00 24.4 10.1 54 WNW 5 G 11 30.04 1017.2 0.00 0 0.0 0.067
18 19:00 25.5 9.4 32.4 25.5 50 NW 10 G 18 30.00 1015.8 0.00 0 0.0 0.066
18 18:00 26.5 9.4 48 WNW 7 G 17 29.95 1014.3 0.00 0 0.0 0.064
18 17:00 27.9 9.8 46 NW 9 G 17 29.91 1012.8 0.00 0 0.0 0.062
18 16:00 29.4 9.1 42 NW 12 G 26 29.84 1010.6 0.00 19 0.0 0.057
18 15:00 30.8 9.9 41 NW 13 G 25 29.81 1009.4 0.00 223 0.0 0.051
18 14:00 31.2 9.7 40 NW 14 G 32 29.76 1007.8 0.00 206 0.5 0.042
18 13:00 32.3 15.3 32.3 26.7 49 NW 14 G 23 29.72 1006.5 0.00 480 0.9 0.033
18 12:00 31.7 16.5 53 NW 13 G 21 29.71 1006.0 0.00 494 1.0 0.025
18 11:00 30.0 14.9 53 WNW 15 G 25 29.70 1005.7 0.00 452 0.9 0.017
18 10:00 28.6 16.1 59 WNW 14 G 25 29.67 1004.9 0.00 271 0.6 0.012
18 09:00 28.3 17.3 63 WNW 12 G 27 29.63 1003.4 0.00 241 0.0 0.009
18 08:00 27.3 17.8 67 WNW 16 G 29 29.56 1001.2 0.00 54 0.0 0.007
18 07:00 26.8 17.0 32.6 26.8 66 WNW 15 G 26 29.52 999.6 0.00 0 0.0 0.006
18 06:00 27.3 17.4 66 NW 17 G 25 29.47 997.9 0.00 0 0.0 0.005
18 05:00 28.6 19.4 68 NW 13 G 23 29.41 995.9 0.00 0 0.0 0.004
18 04:00 30.0 20.7 68 WNW 10 G 22 29.36 994.2 0.00 0 0.0 0.003
18 03:00 30.6 21.3 68 WNW 8 G 17 29.31 992.6 0.00 0 0.0 0.002
18 02:00 31.7 23.0 70 WNW 17 G 23 29.28 991.6 0.00 0 0.0 0.001
18 01:00 32.5 23.5 37.4 32.5 69 WNW 12 G 20 29.25 990.4 0.01 0.01 0.00 0 0.0 0.000
18 00:00 34.4 27.9 77 W 15 G 24 29.21 989.3 0.01 1.20 0 0.0 0.030
17 23:00 34.4 31.5 89 SW 5 G 10 29.19 988.4 1.19 0 0.0 0.030
17 22:00 34.6 31.4 88 SSW 5 G 12 29.18 988.3 1.19 0 0.0 0.030
17 21:00 36.3 31.0 81 SSW 8 G 12 29.17 987.7 1.19 0 0.0 0.030
17 20:00 37.0 31.4 80 SW 8 G 15 29.16 987.5 1.19 0 0.0 0.030
17 19:00 37.3 31.4 44.9 37.3 79 S 4 G 18 29.16 987.6 1.19 0 0.0 0.029
17 18:00 37.8 32.2 80 SSW 10 G 21 29.14 986.9 1.19 0 0.0 0.028
17 17:00 38.0 33.3 83 SW 9 G 25 29.12 986.0 1.19 0 0.0 0.027
17 16:00 39.4 34.7 83 SSW 9 G 20 29.09 985.2 1.19 12 0.0 0.026
17 15:00 41.1 35.7 81 SW 14 G 24 29.08 985.0 1.19 39 0.0 0.023
17 14:00 43.9 36.5 75 SW 15 G 31 29.07 984.5 1.19 211 0.6 0.016
17 13:00 43.8 38.0 47.7 43.6 80 SSW 13 G 35 29.05 983.9 0.02 0.25 1.19 176 0.7 0.009
17 12:00 45.6 40.4 82 SSW 8 G 27 29.07 984.5 1.19 163 0.9 0.004
17 11:00 46.1 43.6 91 S 8 G 24 29.09 985.1 0.02 1.19 86 0.0 0.002
17 10:00 46.7 45.1 94 SSE 9 G 18 29.10 985.6 0.23 1.17 26 0.0 0.001
17 09:00 46.1 44.2 93 SE 10 G 24 29.13 986.6 0.12 1.17 26 0.0 0.000
17 08:00 45.3 43.4 93 SE 14 G 28 29.20 988.9 0.11 1.05 16 0.0 0.000
17 07:00 43.6 41.7 43.6 32.7 93 ESE 16 G 34 29.29 992.0 0.29 0.70 0.94 0.94 0 0.0 0.000
17 06:00 40.7 39.1 94 ESE 12 G 32 29.41 995.9 0.21 0.65 0 0.0 0.000

Data generated by WxSolution Version 1.9.1.8, Build 2021.02.21.